This is the latest recevied weather packets stored in our database for station/object SP6RGZ-1. If no packets are shown the sender has not sent any weather packets the latest 10 day(s).
| Time | Temp. | Humidity | Pressure | Rain* | Wind** | Luminosity | Snow |
|---|---|---|---|---|---|---|---|
| 1778091303 | 17.78° C | 98% | 986.8 hPa | - | - | - | - |
| 1778090402 | 18.33° C | 90% | 986.2 hPa | - | - | - | - |
| 1778089502 | 18.89° C | 79% | 986.3 hPa | - | - | - | - |
| 1778088602 | 18.89° C | 78% | 986.3 hPa | - | - | - | - |
| 1778087702 | 20° C | 73% | 986.4 hPa | - | - | - | - |
| 1778086802 | 22.78° C | 49% | 986.2 hPa | - | - | - | - |
| 1778085902 | 23.33° C | 44% | 985.7 hPa | - | - | - | - |
| 1778085002 | 23.33° C | 43% | 985.7 hPa | - | - | - | - |
| 1778084102 | 23.89° C | 42% | 985.8 hPa | - | - | - | - |
| 1778083202 | 24.44° C | 42% | 985.9 hPa | - | - | - | - |
| 1778082302 | 24.44° C | 41% | 985.9 hPa | - | - | - | - |
| 1778081402 | 24.44° C | 40% | 985.9 hPa | - | - | - | - |
| 1778080502 | 25° C | 39% | 985.9 hPa | - | - | - | - |
| 1778079602 | 25.56° C | 40% | 986 hPa | - | - | - | - |
| 1778078702 | 25.56° C | 40% | 986.1 hPa | - | - | - | - |
| 1778077802 | 26.11° C | 41% | 986.3 hPa | - | - | - | - |
| 1778076902 | 26.11° C | 42% | 986.5 hPa | - | - | - | - |
| 1778076002 | 26.67° C | 41% | 986.6 hPa | - | - | - | - |
| 1778075102 | 26.67° C | 41% | 986.6 hPa | - | - | - | - |
| 1778074202 | 26.11° C | 42% | 986.8 hPa | - | - | - | - |
| 1778073302 | 27.22° C | 40% | 986.8 hPa | - | - | - | - |
| 1778072402 | 26.11° C | 42% | 986.9 hPa | - | - | - | - |
| 1778071503 | 26.11° C | 42% | 986.8 hPa | - | - | - | - |
| 1778070603 | 25.56° C | 44% | 986.9 hPa | - | - | - | - |
| 1778069703 | 25.56° C | 43% | 986.8 hPa | - | - | - | - |
* Rain since midnight (hover to see other rain measurements)
** Current wind speed in m/s (hover to see current wind gust speed)